createdAt,value
2018-09-03T00:01:06.974Z,88.30
2018-09-03T00:03:40.210Z,88.40
2018-09-03T00:06:13.417Z,88.20
2018-09-03T00:08:46.620Z,88.20
2018-09-03T00:11:19.779Z,88.70
2018-09-03T00:13:53.069Z,89.00
2018-09-03T00:16:26.433Z,89.00
2018-09-03T00:18:59.675Z,88.60
2018-09-03T00:21:32.994Z,88.70
2018-09-03T00:24:06.563Z,88.80
2018-09-03T00:26:39.853Z,88.90
2018-09-03T00:29:13.141Z,88.70
2018-09-03T00:31:51.868Z,89.50
2018-09-03T00:34:30.645Z,88.30
2018-09-03T00:37:09.336Z,87.90
2018-09-03T00:40:52.089Z,88.50
2018-09-03T00:43:30.855Z,88.10
2018-09-03T00:47:07.804Z,88.00
2018-09-03T00:49:41.249Z,87.80
2018-09-03T00:52:14.532Z,88.40
2018-09-03T00:54:47.985Z,88.00
2018-09-03T00:57:21.298Z,88.50
2018-09-03T00:59:54.520Z,88.30
2018-09-03T01:02:27.867Z,88.20
2018-09-03T01:05:01.121Z,88.00
2018-09-03T01:07:34.396Z,88.40
2018-09-03T01:10:07.696Z,88.20
2018-09-03T01:12:40.988Z,88.10
2018-09-03T01:15:14.295Z,88.70
2018-09-03T01:17:47.662Z,88.20
2018-09-03T01:20:20.970Z,88.70
2018-09-03T01:22:54.267Z,88.30
2018-09-03T01:25:27.672Z,88.80
2018-09-03T01:28:00.957Z,88.60
2018-09-03T01:30:34.264Z,88.90
2018-09-03T01:33:07.732Z,88.70
2018-09-03T01:35:40.991Z,88.30
2018-09-03T01:38:14.300Z,88.40
2018-09-03T01:40:47.550Z,88.90
2018-09-03T01:43:20.905Z,88.70
2018-09-03T01:45:54.242Z,89.10
2018-09-03T01:48:27.515Z,89.00
2018-09-03T01:51:02.142Z,88.80
2018-09-03T01:53:35.444Z,88.60
2018-09-03T01:56:08.933Z,88.30
2018-09-03T01:58:42.224Z,88.40
2018-09-03T02:01:15.522Z,88.50
2018-09-03T02:03:48.792Z,88.60
2018-09-03T02:06:22.124Z,88.80
2018-09-03T02:08:55.405Z,88.90
2018-09-03T02:11:28.711Z,88.60
2018-09-03T02:14:02.000Z,88.40
2018-09-03T02:16:35.905Z,88.10
2018-09-03T02:19:09.328Z,88.40
2018-09-03T02:21:42.592Z,88.80
2018-09-03T02:24:15.895Z,89.20
2018-09-03T02:26:49.177Z,89.00
2018-09-03T02:29:22.432Z,89.30
2018-09-03T02:31:55.703Z,88.80
2018-09-03T02:34:29.051Z,89.20
2018-09-03T02:37:02.349Z,89.00
2018-09-03T02:39:35.651Z,89.00
2018-09-03T02:42:08.895Z,89.00
2018-09-03T02:44:42.176Z,89.10
2018-09-03T02:47:15.442Z,89.00
2018-09-03T02:49:48.825Z,88.80
2018-09-03T02:52:22.113Z,89.00
2018-09-03T02:55:02.075Z,89.00
2018-09-03T02:57:35.330Z,89.20
2018-09-03T03:00:08.594Z,88.70
2018-09-03T03:02:41.949Z,88.70
2018-09-03T03:05:15.250Z,88.70
2018-09-03T03:07:48.544Z,89.20
2018-09-03T03:10:21.837Z,88.80
2018-09-03T03:12:55.105Z,88.80
2018-09-03T03:15:28.542Z,88.90
2018-09-03T03:18:01.786Z,88.90
2018-09-03T03:20:35.088Z,88.50
2018-09-03T03:23:08.382Z,88.50
2018-09-03T03:25:41.672Z,89.00
2018-09-03T03:28:14.948Z,88.90
2018-09-03T03:30:48.384Z,89.10
2018-09-03T03:33:21.689Z,88.70
2018-09-03T03:35:54.979Z,88.00
2018-09-03T03:38:28.275Z,88.60
2018-09-03T03:41:01.582Z,88.30
2018-09-03T03:43:34.803Z,88.60
2018-09-03T03:46:08.171Z,88.20
2018-09-03T03:48:41.526Z,89.00
2018-09-03T03:51:14.889Z,88.70
2018-09-03T03:53:48.249Z,88.40
2018-09-03T03:56:21.542Z,88.60
2018-09-03T03:58:54.837Z,88.60
2018-09-03T04:01:28.145Z,88.60
2018-09-03T04:04:01.415Z,88.30
2018-09-03T04:06:34.715Z,88.10
2018-09-03T04:09:09.439Z,89.10
2018-09-03T04:11:42.670Z,89.10
2018-09-03T04:14:16.065Z,89.10
2018-09-03T04:16:49.426Z,88.50
2018-09-03T04:19:22.718Z,88.30
2018-09-03T04:21:56.014Z,88.50
2018-09-03T04:24:29.220Z,88.20
2018-09-03T04:27:02.567Z,88.20
2018-09-03T04:29:35.845Z,88.10
2018-09-03T04:32:09.134Z,87.90
2018-09-03T04:34:42.529Z,87.80
2018-09-03T04:37:15.807Z,87.80
2018-09-03T04:39:49.190Z,88.00
2018-09-03T04:42:22.466Z,88.30
2018-09-03T04:44:55.863Z,88.60
2018-09-03T04:47:29.186Z,88.90
2018-09-03T04:50:02.497Z,89.00
2018-09-03T04:52:35.841Z,88.20
2018-09-03T04:55:09.133Z,88.20
2018-09-03T04:57:42.413Z,88.60
2018-09-03T05:00:16.125Z,88.50
2018-09-03T05:02:49.428Z,89.00
2018-09-03T05:05:22.983Z,88.60
2018-09-03T05:07:56.228Z,88.60
2018-09-03T05:10:29.506Z,88.50
2018-09-03T05:13:02.778Z,88.80
2018-09-03T05:15:36.051Z,88.40
2018-09-03T05:18:09.403Z,88.40
2018-09-03T05:20:42.812Z,88.70
2018-09-03T05:23:16.156Z,89.00
2018-09-03T05:25:49.575Z,88.80
2018-09-03T05:28:22.989Z,88.80
2018-09-03T05:30:56.369Z,89.20
2018-09-03T05:33:29.776Z,88.90
2018-09-03T05:36:03.121Z,88.70
2018-09-03T05:38:36.617Z,89.10
2018-09-03T05:41:10.032Z,88.90
2018-09-03T05:43:43.653Z,89.00
2018-09-03T05:46:16.867Z,88.10
2018-09-03T05:48:50.259Z,88.50
2018-09-03T05:51:23.578Z,88.60
2018-09-03T05:53:56.851Z,87.80
2018-09-03T05:56:30.145Z,88.20
2018-09-03T05:59:03.673Z,87.50
2018-09-03T06:01:37.561Z,87.80
2018-09-03T06:04:10.961Z,88.40
2018-09-03T06:06:44.240Z,88.40
2018-09-03T06:09:17.637Z,88.60
2018-09-03T06:11:51.104Z,88.60
2018-09-03T06:14:24.460Z,87.80
2018-09-03T06:16:57.725Z,88.00
2018-09-03T06:19:31.025Z,87.80
2018-09-03T06:22:04.414Z,88.20
2018-09-03T06:24:37.687Z,88.50
2018-09-03T06:27:11.270Z,88.20
2018-09-03T06:29:44.692Z,88.20
2018-09-03T06:32:18.002Z,88.20
2018-09-03T06:34:51.274Z,88.30
2018-09-03T06:37:24.606Z,88.50
2018-09-03T06:39:57.965Z,88.20
2018-09-03T06:42:31.281Z,87.60
2018-09-03T06:45:04.779Z,88.10
2018-09-03T06:47:38.094Z,88.10
2018-09-03T06:50:11.382Z,88.50
2018-09-03T06:52:44.781Z,88.40
2018-09-03T06:55:18.177Z,87.80
2018-09-03T06:57:51.516Z,88.80
2018-09-03T07:00:24.865Z,87.60
2018-09-03T07:02:58.198Z,87.90
2018-09-03T07:05:31.537Z,87.50
2018-09-03T07:08:04.848Z,87.70
2018-09-03T07:10:38.127Z,87.50
2018-09-03T07:13:11.425Z,87.30
2018-09-03T07:15:44.688Z,86.40
2018-09-03T07:18:18.010Z,86.70
2018-09-03T07:20:51.314Z,86.60
2018-09-03T07:23:24.703Z,86.90
2018-09-03T07:25:58.048Z,87.40
2018-09-03T07:28:31.374Z,87.20
2018-09-03T07:31:04.684Z,87.00
2018-09-03T07:33:37.940Z,86.20
2018-09-03T07:36:11.182Z,86.10
2018-09-03T07:38:44.563Z,86.40
2018-09-03T07:41:17.966Z,85.90
2018-09-03T07:43:51.235Z,86.10
2018-09-03T07:46:24.457Z,87.10
2018-09-03T07:48:57.776Z,86.80
2018-09-03T07:51:31.031Z,86.10
2018-09-03T07:54:04.446Z,85.70
2018-09-03T07:56:37.737Z,85.70
2018-09-03T07:59:11.107Z,85.30
2018-09-03T08:01:44.523Z,86.50
2018-09-03T08:04:17.824Z,85.30
2018-09-03T08:06:51.139Z,85.40
2018-09-03T08:09:24.458Z,85.90
2018-09-03T08:11:57.799Z,85.20
2018-09-03T08:14:31.182Z,84.60
2018-09-03T08:17:04.490Z,84.50
2018-09-03T08:19:37.822Z,84.20
2018-09-03T08:22:11.083Z,85.10
2018-09-03T08:24:44.371Z,84.30
2018-09-03T08:27:17.679Z,84.50
2018-09-03T08:29:51.026Z,84.20
2018-09-03T08:32:24.429Z,83.30
2018-09-03T08:34:57.753Z,83.60
2018-09-03T08:37:31.146Z,83.70
2018-09-03T08:40:04.582Z,82.80
2018-09-03T08:42:37.990Z,82.80
2018-09-03T08:45:11.388Z,83.00
2018-09-03T08:47:44.736Z,82.30
2018-09-03T08:50:18.045Z,82.60
2018-09-03T08:52:51.364Z,83.00
2018-09-03T08:55:24.631Z,82.10
2018-09-03T08:57:58.020Z,81.30
2018-09-03T09:00:31.567Z,82.20
2018-09-03T09:03:07.572Z,81.70
2018-09-03T09:05:40.904Z,81.70
2018-09-03T09:08:14.402Z,82.20
2018-09-03T09:10:47.817Z,82.10
2018-09-03T09:13:21.126Z,80.50
2018-09-03T09:15:54.368Z,81.00
2018-09-03T09:18:27.651Z,79.70
2018-09-03T09:21:00.968Z,80.80
2018-09-03T09:23:34.446Z,81.80
2018-09-03T09:26:07.784Z,80.80
2018-09-03T09:28:41.126Z,80.20
2018-09-03T09:31:14.430Z,80.80
2018-09-03T09:33:47.838Z,81.30
2018-09-03T09:36:21.111Z,80.50
2018-09-03T09:38:54.405Z,79.90
2018-09-03T09:41:27.809Z,80.40
2018-09-03T09:44:01.943Z,79.70
2018-09-03T09:46:35.327Z,78.60
2018-09-03T09:49:08.768Z,78.40
2018-09-03T09:51:42.388Z,78.50
2018-09-03T09:54:16.015Z,79.30
2018-09-03T09:56:49.536Z,80.70
2018-09-03T09:59:22.917Z,80.70
2018-09-03T10:01:56.313Z,80.70
2018-09-03T10:04:29.691Z,79.70
2018-09-03T10:07:03.071Z,80.70
2018-09-03T10:09:36.410Z,80.50
2018-09-03T10:12:09.703Z,79.80
2018-09-03T10:14:43.025Z,80.40
2018-09-03T10:17:16.270Z,80.70
2018-09-03T10:19:49.605Z,80.00
2018-09-03T10:22:22.918Z,79.30
2018-09-03T10:24:56.246Z,80.10
2018-09-03T10:27:29.576Z,80.40
2018-09-03T10:30:02.777Z,81.20
2018-09-03T10:32:36.087Z,81.30
2018-09-03T10:35:09.379Z,81.60
2018-09-03T10:37:42.766Z,81.90
2018-09-03T10:40:15.945Z,82.20
2018-09-03T10:42:49.190Z,84.10
2018-09-03T10:45:22.516Z,83.70
2018-09-03T10:47:55.706Z,84.70
2018-09-03T10:50:29.053Z,85.20
2018-09-03T10:53:02.324Z,85.60
2018-09-03T10:55:35.655Z,84.60
2018-09-03T10:58:09.289Z,85.70
2018-09-03T11:00:42.596Z,85.70
2018-09-03T11:03:15.848Z,85.40
2018-09-03T11:05:49.125Z,85.10
2018-09-03T11:08:22.388Z,85.30
2018-09-03T11:10:55.637Z,84.70
2018-09-03T11:13:28.825Z,83.70
2018-09-03T11:16:02.058Z,84.20
2018-09-03T11:18:35.381Z,84.90
2018-09-03T11:21:08.608Z,83.90
2018-09-03T11:23:41.758Z,84.20
2018-09-03T11:26:14.996Z,82.40
2018-09-03T11:28:48.178Z,82.80
2018-09-03T11:31:21.520Z,82.50
2018-09-03T11:33:54.689Z,82.20
2018-09-03T11:36:27.874Z,81.70
2018-09-03T11:39:01.026Z,82.80
2018-09-03T11:41:34.753Z,83.20
2018-09-03T11:44:14.795Z,82.60
2018-09-03T11:46:48.038Z,83.50
2018-09-03T11:49:21.179Z,83.20
2018-09-03T11:51:54.361Z,83.30
2018-09-03T11:54:27.520Z,82.90
2018-09-03T11:57:00.685Z,81.70
2018-09-03T11:59:33.851Z,81.20
2018-09-03T12:02:07.077Z,83.60
2018-09-03T12:04:40.149Z,83.70
2018-09-03T12:07:13.309Z,82.60
2018-09-03T12:09:46.465Z,80.90
2018-09-03T12:12:19.989Z,79.70
2018-09-03T12:14:56.978Z,80.50
2018-09-03T12:17:30.171Z,78.90
2018-09-03T12:20:04.143Z,79.80
2018-09-03T12:22:37.330Z,80.30
2018-09-03T12:25:10.507Z,80.30
2018-09-03T12:27:43.748Z,79.40
2018-09-03T12:30:16.917Z,78.40
2018-09-03T12:32:50.073Z,78.60
2018-09-03T12:35:23.247Z,78.20
2018-09-03T12:37:56.495Z,78.50
2018-09-03T12:40:29.695Z,77.40
2018-09-03T12:43:02.879Z,78.80
2018-09-03T12:45:41.451Z,79.20
2018-09-03T12:48:14.634Z,77.70
2018-09-03T12:50:47.801Z,77.70
2018-09-03T12:53:21.007Z,76.30
2018-09-03T12:55:54.219Z,75.20
2018-09-03T13:01:07.061Z,76.10
2018-09-03T13:03:40.253Z,75.70
2018-09-03T13:06:13.511Z,74.30
2018-09-03T13:08:46.651Z,75.20
2018-09-03T13:11:19.819Z,75.30
2018-09-03T13:13:52.981Z,76.80
2018-09-03T13:16:26.231Z,76.10
2018-09-03T13:18:59.381Z,76.30
2018-09-03T13:24:11.995Z,74.60
2018-09-03T13:26:45.165Z,75.10
2018-09-03T13:29:18.355Z,75.60
2018-09-03T13:31:51.651Z,74.70
2018-09-03T13:34:24.815Z,76.00
2018-09-03T13:36:57.938Z,75.40
2018-09-03T13:39:31.131Z,74.70
2018-09-03T13:42:04.360Z,75.80
2018-09-03T13:44:37.521Z,75.70
2018-09-03T13:47:10.686Z,74.70
2018-09-03T13:49:43.955Z,75.10
2018-09-03T13:52:17.415Z,75.60
2018-09-03T13:54:50.650Z,74.10
2018-09-03T13:57:23.757Z,74.10
2018-09-03T13:59:56.921Z,74.50
2018-09-03T14:02:30.078Z,73.40
2018-09-03T14:05:03.290Z,73.60
2018-09-03T14:07:36.474Z,74.00
2018-09-03T14:10:09.690Z,75.30
2018-09-03T14:12:43.050Z,73.30
2018-09-03T14:15:16.217Z,72.60
2018-09-03T14:17:49.374Z,73.70
2018-09-03T14:20:22.598Z,75.10
2018-09-03T14:22:55.741Z,72.80
2018-09-03T14:25:29.025Z,72.40
2018-09-03T14:28:02.166Z,71.90
2018-09-03T14:30:35.389Z,71.50
2018-09-03T14:33:08.530Z,70.90
2018-09-03T14:35:41.729Z,71.00
2018-09-03T14:38:14.876Z,70.20
2018-09-03T14:40:48.060Z,69.70
2018-09-03T14:43:21.210Z,69.50
2018-09-03T14:45:54.452Z,69.20
2018-09-03T14:48:27.607Z,68.90
2018-09-03T14:51:00.873Z,68.80
2018-09-03T14:53:34.150Z,68.10
2018-09-03T14:56:07.310Z,68.70
2018-09-03T14:58:40.503Z,68.80
2018-09-03T15:01:13.743Z,68.20
2018-09-03T15:03:46.893Z,68.80
2018-09-03T15:06:20.110Z,67.90
2018-09-03T15:15:45.202Z,69.70
2018-09-03T15:18:18.337Z,69.90
2018-09-03T15:20:51.521Z,69.70
2018-09-03T15:23:24.777Z,69.60
2018-09-03T15:25:57.954Z,70.40
2018-09-03T15:28:31.126Z,70.30
2018-09-03T15:31:04.286Z,70.90
2018-09-03T15:33:37.443Z,69.40
2018-09-03T15:36:10.641Z,69.80
2018-09-03T15:38:43.763Z,71.50
2018-09-03T15:41:16.959Z,71.20
2018-09-03T15:43:50.111Z,71.80
2018-09-03T15:46:23.267Z,71.30
2018-09-03T15:48:56.449Z,72.70
2018-09-03T15:51:29.613Z,72.30
2018-09-03T15:54:02.839Z,72.20
2018-09-03T15:56:35.958Z,72.10
2018-09-03T15:59:09.464Z,72.10
2018-09-03T16:01:42.650Z,72.30
2018-09-03T16:04:15.803Z,71.40
2018-09-03T16:06:49.002Z,73.00
2018-09-03T16:09:22.141Z,72.40
2018-09-03T16:11:55.349Z,73.00
2018-09-03T16:14:28.496Z,72.90
2018-09-03T16:17:02.076Z,72.60
2018-09-03T16:19:35.238Z,72.50
2018-09-03T16:22:08.938Z,72.50
2018-09-03T16:24:42.145Z,71.60
2018-09-03T16:27:15.339Z,72.00
2018-09-03T16:29:48.490Z,73.20
2018-09-03T16:32:21.803Z,71.70
2018-09-03T16:34:54.956Z,71.50
2018-09-03T16:37:28.104Z,71.50
2018-09-03T16:40:01.262Z,71.30
2018-09-03T16:42:34.449Z,71.50
2018-09-03T16:45:07.613Z,72.00
2018-09-03T16:47:40.771Z,72.70
2018-09-03T16:50:14.135Z,72.00
2018-09-03T16:52:47.407Z,71.00
2018-09-03T16:55:20.679Z,70.70
2018-09-03T16:57:53.782Z,71.70
2018-09-03T17:00:26.959Z,71.00
2018-09-03T17:03:00.151Z,71.40
2018-09-03T17:05:33.301Z,71.40
2018-09-03T17:08:06.581Z,71.50
2018-09-03T17:10:39.618Z,72.00
2018-09-03T17:13:12.807Z,72.50
2018-09-03T17:15:45.966Z,72.80
2018-09-03T17:18:19.144Z,72.50
2018-09-03T17:20:52.317Z,72.00
2018-09-03T17:23:25.504Z,72.00
2018-09-03T17:25:58.665Z,72.80
2018-09-03T17:28:31.886Z,73.10
2018-09-03T17:31:05.693Z,74.30
2018-09-03T17:33:38.894Z,74.10
2018-09-03T17:36:12.150Z,74.60
2018-09-03T17:38:45.294Z,74.10
2018-09-03T17:41:18.438Z,74.40
2018-09-03T17:43:51.675Z,75.90
2018-09-03T17:46:24.839Z,75.20
2018-09-03T17:48:58.005Z,75.80
2018-09-03T17:51:31.272Z,76.30
2018-09-03T17:54:04.453Z,76.70
2018-09-03T17:56:37.656Z,77.30
2018-09-03T17:59:10.857Z,78.20
2018-09-03T18:01:44.022Z,77.90
2018-09-03T18:04:17.271Z,79.40
2018-09-03T18:06:50.419Z,81.80
2018-09-03T18:09:23.636Z,82.40
2018-09-03T18:11:56.758Z,83.20
2018-09-03T18:14:29.944Z,84.60
2018-09-03T18:17:03.177Z,83.40
2018-09-03T18:19:36.380Z,84.50
2018-09-03T18:22:09.560Z,84.30
2018-09-03T18:24:42.861Z,84.40
2018-09-03T18:27:16.025Z,82.20
2018-09-03T18:29:49.214Z,84.10
2018-09-03T18:32:22.379Z,84.90
2018-09-03T18:34:55.546Z,86.80
2018-09-03T18:37:28.702Z,85.80
2018-09-03T18:40:01.900Z,86.10
2018-09-03T18:42:35.067Z,86.40
2018-09-03T18:45:08.757Z,87.70
2018-09-03T18:47:41.924Z,85.30
2018-09-03T18:50:15.218Z,85.70
2018-09-03T18:52:48.365Z,85.70
2018-09-03T18:55:21.619Z,87.20
2018-09-03T18:57:54.759Z,86.50
2018-09-03T19:00:27.941Z,87.00
2018-09-03T19:03:01.066Z,86.50
2018-09-03T19:05:34.212Z,86.70
2018-09-03T19:08:07.369Z,86.20
2018-09-03T19:10:40.539Z,86.60
2018-09-03T19:13:13.686Z,86.70
2018-09-03T19:15:46.874Z,87.20
2018-09-03T19:18:20.034Z,87.50
2018-09-03T19:20:53.188Z,87.20
2018-09-03T19:23:26.449Z,87.00
2018-09-03T19:25:59.684Z,87.00
2018-09-03T19:28:32.889Z,87.40
2018-09-03T19:31:06.062Z,87.60
2018-09-03T19:33:39.264Z,88.60
2018-09-03T19:36:12.456Z,87.90
2018-09-03T19:38:45.598Z,88.20
2018-09-03T19:41:18.755Z,87.50
2018-09-03T19:43:51.932Z,87.30
2018-09-03T19:46:25.113Z,87.90
2018-09-03T19:48:58.266Z,88.10
2018-09-03T19:51:31.449Z,88.20
2018-09-03T19:54:04.693Z,87.70
2018-09-03T19:56:37.866Z,55.00
2018-09-03T19:59:11.013Z,33.10
2018-09-03T20:01:44.293Z,46.60
2018-09-03T20:04:17.542Z,59.10
2018-09-03T20:06:50.738Z,69.70
2018-09-03T20:09:23.900Z,75.30
2018-09-03T20:11:57.095Z,79.40
2018-09-03T20:14:30.325Z,80.60
2018-09-03T20:17:03.624Z,81.80
2018-09-03T20:19:36.742Z,82.80
2018-09-03T20:22:13.398Z,83.00
2018-09-03T20:24:46.648Z,83.90
2018-09-03T20:27:19.803Z,84.90
2018-09-03T20:29:53.046Z,85.80
2018-09-03T20:32:26.237Z,85.70
2018-09-03T20:34:59.385Z,86.30
2018-09-03T20:37:32.569Z,86.60
2018-09-03T20:40:06.066Z,87.00
2018-09-03T20:42:39.231Z,86.90
2018-09-03T20:45:12.423Z,86.50
2018-09-03T20:47:45.731Z,87.40
2018-09-03T20:50:18.857Z,87.10
2018-09-03T20:52:52.022Z,87.20
2018-09-03T20:55:25.187Z,87.90
2018-09-03T20:57:58.373Z,87.70
2018-09-03T21:00:31.577Z,88.00
2018-09-03T21:03:04.758Z,87.90
2018-09-03T21:05:37.953Z,88.30
2018-09-03T21:08:11.106Z,88.30
2018-09-03T21:10:44.271Z,88.40
2018-09-03T21:13:17.517Z,88.50
2018-09-03T21:15:52.557Z,88.20
2018-09-03T21:18:25.738Z,88.60
2018-09-03T21:20:58.934Z,88.60
2018-09-03T21:23:32.443Z,88.70
2018-09-03T21:26:12.562Z,88.90
2018-09-03T21:28:45.746Z,88.50
2018-09-03T21:31:18.966Z,88.20
2018-09-03T21:33:52.183Z,88.40
2018-09-03T21:36:25.317Z,89.10
2018-09-03T21:38:58.541Z,89.20
2018-09-03T21:41:31.637Z,89.10
2018-09-03T21:44:04.845Z,89.20
2018-09-03T21:46:38.016Z,89.10
2018-09-03T21:49:11.273Z,89.30
2018-09-03T21:51:44.567Z,89.00
2018-09-03T21:54:17.740Z,89.20
2018-09-03T21:56:51.143Z,89.20
2018-09-03T21:59:24.324Z,89.10
2018-09-03T22:01:57.571Z,89.30
2018-09-03T22:04:30.807Z,89.30
2018-09-03T22:07:04.101Z,89.30
2018-09-03T22:09:37.278Z,89.60
2018-09-03T22:12:10.521Z,89.60
2018-09-03T22:14:43.705Z,89.30
2018-09-03T22:17:16.896Z,89.00
2018-09-03T22:19:50.098Z,89.40
2018-09-03T22:22:23.343Z,89.30
2018-09-03T22:24:56.564Z,89.10
2018-09-03T22:27:29.726Z,89.20
2018-09-03T22:30:02.901Z,89.10
2018-09-03T22:32:36.058Z,89.30
2018-09-03T22:35:09.266Z,89.10
2018-09-03T22:37:42.455Z,89.20
2018-09-03T22:40:15.639Z,89.20
2018-09-03T22:42:49.442Z,88.90
2018-09-03T22:45:22.599Z,89.30
2018-09-03T22:47:55.788Z,89.40
2018-09-03T22:50:29.342Z,89.60
2018-09-03T22:53:02.489Z,90.10
2018-09-03T22:55:35.670Z,89.10
2018-09-03T22:58:08.899Z,89.20
2018-09-03T23:00:42.186Z,89.40
2018-09-03T23:03:15.401Z,89.30
2018-09-03T23:05:48.670Z,89.10
2018-09-03T23:08:21.737Z,89.20
2018-09-03T23:10:54.950Z,89.60
2018-09-03T23:13:28.527Z,89.10
2018-09-03T23:16:01.693Z,89.20
2018-09-03T23:18:34.939Z,89.50
2018-09-03T23:21:08.113Z,89.50
2018-09-03T23:23:41.319Z,89.80
2018-09-03T23:26:14.489Z,89.70
2018-09-03T23:28:47.640Z,89.50
2018-09-03T23:31:20.811Z,89.10
2018-09-03T23:33:54.036Z,89.60
2018-09-03T23:36:27.202Z,89.80
2018-09-03T23:39:00.360Z,89.30
2018-09-03T23:41:33.545Z,89.50
2018-09-03T23:44:06.826Z,89.50
2018-09-03T23:46:40.141Z,89.70
2018-09-03T23:49:13.294Z,89.60
2018-09-03T23:51:48.138Z,89.60
2018-09-03T23:54:21.289Z,89.70
2018-09-03T23:56:54.650Z,89.60
2018-09-03T23:59:27.880Z,90.00
